createdAt,value
2019-01-18T00:00:49.549Z,3.90
2019-01-18T00:03:18.217Z,3.90
2019-01-18T00:05:46.700Z,3.90
2019-01-18T00:08:15.177Z,4.00
2019-01-18T00:10:45.448Z,4.00
2019-01-18T00:13:13.973Z,4.00
2019-01-18T00:15:42.576Z,4.10
2019-01-18T00:18:11.205Z,4.10
2019-01-18T00:20:39.924Z,4.10
2019-01-18T00:23:08.877Z,4.10
2019-01-18T00:25:37.394Z,4.20
2019-01-18T00:28:06.025Z,4.30
2019-01-18T00:30:38.110Z,4.40
2019-01-18T00:33:09.231Z,4.50
2019-01-18T00:35:40.518Z,4.50
2019-01-18T00:38:16.055Z,4.60
2019-01-18T00:40:48.261Z,4.60
2019-01-18T00:43:24.255Z,4.60
2019-01-18T00:45:53.089Z,4.70
2019-01-18T00:48:27.421Z,4.80
2019-01-18T00:50:56.670Z,4.80
2019-01-18T00:53:26.255Z,4.90
2019-01-18T00:55:54.825Z,4.90
2019-01-18T00:58:23.286Z,4.90
2019-01-18T01:00:52.289Z,4.90
2019-01-18T01:03:27.823Z,5.00
2019-01-18T01:05:59.651Z,5.10
2019-01-18T01:08:28.060Z,5.10
2019-01-18T01:10:56.673Z,5.10
2019-01-18T01:13:25.299Z,5.10
2019-01-18T01:15:54.004Z,5.20
2019-01-18T01:18:22.495Z,5.20
2019-01-18T01:20:53.355Z,5.10
2019-01-18T01:23:21.934Z,5.10
2019-01-18T01:25:50.937Z,5.10
2019-01-18T01:28:19.419Z,5.10
2019-01-18T01:30:50.025Z,5.10
2019-01-18T01:33:18.615Z,5.10
2019-01-18T01:35:47.057Z,5.10
2019-01-18T01:38:15.958Z,5.10
2019-01-18T01:40:44.901Z,5.10
2019-01-18T01:43:13.587Z,5.10
2019-01-18T01:45:42.199Z,5.10
2019-01-18T01:48:11.007Z,5.10
2019-01-18T01:50:39.752Z,5.10
2019-01-18T01:53:08.386Z,5.20
2019-01-18T01:55:37.299Z,5.10
2019-01-18T01:58:05.897Z,5.20
2019-01-18T02:00:34.369Z,5.20
2019-01-18T02:03:02.817Z,5.30
2019-01-18T02:05:31.496Z,5.30
2019-01-18T02:07:59.942Z,5.30
2019-01-18T02:10:28.675Z,5.30
2019-01-18T02:12:58.919Z,5.40
2019-01-18T02:15:27.512Z,5.40
2019-01-18T02:17:56.059Z,5.40
2019-01-18T02:20:24.531Z,5.50
2019-01-18T02:22:52.979Z,5.50
2019-01-18T02:25:21.539Z,5.50
2019-01-18T02:27:50.126Z,5.50
2019-01-18T02:30:21.240Z,5.50
2019-01-18T02:32:49.990Z,5.50
2019-01-18T02:35:18.951Z,5.50
2019-01-18T02:37:47.565Z,5.50
2019-01-18T02:40:16.416Z,5.50
2019-01-18T02:42:45.189Z,5.50
2019-01-18T02:45:20.174Z,5.50
2019-01-18T02:47:48.782Z,5.50
2019-01-18T02:50:19.231Z,5.50
2019-01-18T02:52:47.583Z,5.50
2019-01-18T02:55:19.473Z,5.50
2019-01-18T02:57:48.148Z,5.50
2019-01-18T03:00:24.278Z,5.50
2019-01-18T03:02:53.350Z,5.50
2019-01-18T03:05:24.322Z,5.50
2019-01-18T03:07:52.984Z,5.40
2019-01-18T03:10:23.659Z,5.50
2019-01-18T03:12:53.922Z,5.50
2019-01-18T03:15:22.523Z,5.40
2019-01-18T03:17:51.207Z,5.40
2019-01-18T03:20:20.017Z,5.40
2019-01-18T03:22:48.627Z,5.40
2019-01-18T03:25:22.808Z,5.30
2019-01-18T03:27:51.256Z,5.30
2019-01-18T03:30:20.584Z,5.30
2019-01-18T03:32:50.439Z,5.30
2019-01-18T03:35:21.284Z,5.30
2019-01-18T03:37:49.867Z,5.20
2019-01-18T03:40:19.777Z,5.20
2019-01-18T03:42:48.796Z,5.10
2019-01-18T03:45:21.441Z,4.90
2019-01-18T03:47:49.925Z,4.80
2019-01-18T03:50:23.804Z,4.60
2019-01-18T03:52:52.607Z,4.60
2019-01-18T03:55:21.137Z,4.50
2019-01-18T03:57:50.149Z,4.50
2019-01-18T04:00:26.297Z,4.40
2019-01-18T04:02:54.650Z,4.40
2019-01-18T04:05:22.545Z,4.30
2019-01-18T04:07:51.226Z,4.30
2019-01-18T04:10:28.111Z,4.20
2019-01-18T04:12:56.324Z,4.20
2019-01-18T04:15:27.308Z,4.10
2019-01-18T04:17:55.954Z,4.10
2019-01-18T04:20:25.433Z,4.10
2019-01-18T04:22:54.150Z,4.00
2019-01-18T04:25:24.369Z,4.00
2019-01-18T04:27:52.799Z,4.00
2019-01-18T04:30:23.051Z,4.00
2019-01-18T04:32:51.579Z,3.90
2019-01-18T04:35:20.336Z,3.90
2019-01-18T04:37:48.953Z,3.90
2019-01-18T04:40:20.213Z,3.80
2019-01-18T04:42:48.817Z,3.80
2019-01-18T04:45:17.394Z,3.70
2019-01-18T04:47:46.030Z,3.70
2019-01-18T04:50:19.627Z,3.70
2019-01-18T04:52:48.174Z,3.70
2019-01-18T04:55:16.727Z,3.70
2019-01-18T04:57:45.231Z,3.80
2019-01-18T05:00:19.077Z,3.90
2019-01-18T05:02:47.524Z,3.90
2019-01-18T05:05:15.934Z,3.90
2019-01-18T05:07:44.778Z,3.90
2019-01-18T05:10:15.594Z,3.90
2019-01-18T05:12:44.044Z,3.90
2019-01-18T05:15:18.598Z,3.80
2019-01-18T05:17:47.877Z,3.90
2019-01-18T05:20:16.284Z,3.80
2019-01-18T05:22:45.090Z,3.80
2019-01-18T05:25:13.908Z,3.80
2019-01-18T05:27:44.089Z,3.80
2019-01-18T05:30:16.040Z,3.70
2019-01-18T05:32:48.389Z,3.50
2019-01-18T05:35:17.874Z,3.40
2019-01-18T05:37:46.604Z,3.20
2019-01-18T05:40:17.334Z,3.10
2019-01-18T05:42:45.791Z,3.10
2019-01-18T05:45:17.082Z,3.00
2019-01-18T05:47:45.712Z,3.00
2019-01-18T05:50:16.683Z,2.90
2019-01-18T05:52:45.360Z,2.90
2019-01-18T05:55:13.844Z,2.90
2019-01-18T05:57:42.585Z,2.90
2019-01-18T06:00:30.366Z,3.00
2019-01-18T06:02:58.887Z,3.00
2019-01-18T06:05:28.844Z,3.00
2019-01-18T06:07:57.418Z,3.00
2019-01-18T06:10:26.049Z,3.00
2019-01-18T06:12:54.554Z,3.00
2019-01-18T06:15:23.235Z,3.00
2019-01-18T06:17:52.022Z,3.00
2019-01-18T06:20:20.514Z,3.00
2019-01-18T06:22:49.445Z,3.00
2019-01-18T06:25:18.304Z,3.00
2019-01-18T06:27:46.877Z,3.00
2019-01-18T06:30:17.128Z,3.00
2019-01-18T06:32:45.806Z,2.90
2019-01-18T06:35:28.102Z,2.90
2019-01-18T06:38:00.118Z,2.90
2019-01-18T06:40:28.707Z,2.80
2019-01-18T06:42:58.064Z,2.90
2019-01-18T06:45:33.428Z,2.90
2019-01-18T06:48:03.917Z,2.90
2019-01-18T06:50:32.609Z,2.90
2019-01-18T06:53:01.626Z,2.90
2019-01-18T06:55:30.521Z,3.00
2019-01-18T06:57:59.045Z,2.90
2019-01-18T07:00:31.975Z,3.00
2019-01-18T07:03:00.679Z,2.90
2019-01-18T07:05:31.893Z,2.90
2019-01-18T07:08:00.649Z,2.80
2019-01-18T07:10:30.256Z,2.80
2019-01-18T07:12:58.720Z,2.80
2019-01-18T07:15:27.220Z,2.80
2019-01-18T07:17:56.112Z,2.80
2019-01-18T07:20:27.650Z,2.70
2019-01-18T07:22:56.364Z,2.80
2019-01-18T07:25:27.476Z,2.70
2019-01-18T07:27:56.119Z,2.70
2019-01-18T07:30:30.407Z,2.70
2019-01-18T07:32:58.981Z,2.70
2019-01-18T07:35:27.642Z,2.70
2019-01-18T07:37:56.497Z,2.80
2019-01-18T07:40:26.153Z,2.80
2019-01-18T07:42:55.068Z,2.80
2019-01-18T07:45:28.982Z,2.90
2019-01-18T07:47:57.587Z,2.90
2019-01-18T07:50:26.147Z,3.00
2019-01-18T07:52:54.807Z,3.10
2019-01-18T07:55:23.501Z,3.20
2019-01-18T07:57:52.160Z,3.20
2019-01-18T08:00:23.107Z,3.20
2019-01-18T08:02:51.707Z,3.20
2019-01-18T08:05:23.010Z,3.30
2019-01-18T08:07:51.648Z,3.30
2019-01-18T08:10:22.229Z,3.30
2019-01-18T08:12:50.698Z,3.30
2019-01-18T08:15:21.544Z,3.10
2019-01-18T08:17:50.117Z,3.10
2019-01-18T08:20:26.926Z,3.10
2019-01-18T08:22:59.781Z,3.00
2019-01-18T08:25:28.277Z,2.90
2019-01-18T08:27:56.832Z,2.90
2019-01-18T08:30:27.541Z,2.70
2019-01-18T08:32:56.094Z,2.60
2019-01-18T08:35:25.905Z,2.60
2019-01-18T08:37:54.597Z,2.50
2019-01-18T08:40:25.588Z,2.60
2019-01-18T08:42:54.059Z,2.80
2019-01-18T08:45:28.667Z,2.90
2019-01-18T08:47:57.389Z,2.90
2019-01-18T08:50:27.869Z,3.00
2019-01-18T08:52:56.665Z,3.00
2019-01-18T08:55:28.637Z,2.90
2019-01-18T08:58:00.374Z,2.90
2019-01-18T09:00:36.943Z,2.90
2019-01-18T09:03:18.350Z,2.80
2019-01-18T09:05:51.743Z,2.70
2019-01-18T09:08:19.159Z,2.60
2019-01-18T09:10:47.737Z,2.60
2019-01-18T09:13:18.488Z,2.70
2019-01-18T09:15:47.532Z,2.70
2019-01-18T09:18:16.313Z,2.60
2019-01-18T09:20:45.291Z,2.50
2019-01-18T09:23:14.581Z,2.40
2019-01-18T09:25:46.951Z,2.50
2019-01-18T09:28:15.713Z,2.40
2019-01-18T09:30:44.246Z,2.40
2019-01-18T09:33:13.189Z,2.40
2019-01-18T09:35:43.275Z,2.50
2019-01-18T09:38:17.573Z,2.50
2019-01-18T09:40:42.329Z,2.50
2019-01-18T09:43:11.323Z,2.50
2019-01-18T09:45:40.879Z,2.60
2019-01-18T09:48:09.474Z,2.70
2019-01-18T09:50:38.430Z,2.90
2019-01-18T09:53:11.271Z,3.10
2019-01-18T09:55:39.871Z,3.20
2019-01-18T09:58:08.367Z,3.10
2019-01-18T10:00:38.294Z,3.10
2019-01-18T10:03:06.855Z,3.00
2019-01-18T10:05:35.358Z,2.90
2019-01-18T10:08:04.295Z,2.90
2019-01-18T10:10:33.149Z,2.80
2019-01-18T10:13:04.064Z,2.70
2019-01-18T10:15:35.525Z,2.70
2019-01-18T10:18:06.870Z,2.70
2019-01-18T10:20:35.237Z,2.60
2019-01-18T10:23:04.151Z,2.60
2019-01-18T10:25:33.023Z,2.60
2019-01-18T10:28:01.507Z,2.60
2019-01-18T10:30:30.118Z,2.50
2019-01-18T10:33:03.615Z,2.60
2019-01-18T10:35:32.234Z,2.80
2019-01-18T10:38:00.761Z,2.80
2019-01-18T10:40:29.677Z,2.80
2019-01-18T10:42:58.165Z,2.90
2019-01-18T10:45:26.685Z,2.70
2019-01-18T10:47:55.418Z,2.60
2019-01-18T10:50:26.674Z,2.70
2019-01-18T10:52:55.331Z,2.70
2019-01-18T10:55:23.978Z,2.70
2019-01-18T10:57:53.035Z,2.80
2019-01-18T11:00:24.257Z,2.70
2019-01-18T11:02:53.203Z,2.70
2019-01-18T11:05:22.728Z,2.60
2019-01-18T11:07:51.429Z,2.50
2019-01-18T11:10:20.078Z,2.50
2019-01-18T11:12:48.739Z,2.50
2019-01-18T11:15:23.472Z,2.50
2019-01-18T11:17:51.996Z,2.50
2019-01-18T11:20:23.514Z,2.40
2019-01-18T11:22:53.327Z,2.40
2019-01-18T11:25:50.331Z,2.50
2019-01-18T11:28:10.226Z,2.40
2019-01-18T11:30:38.895Z,2.30
2019-01-18T11:33:07.424Z,2.40
2019-01-18T11:35:36.078Z,2.40
2019-01-18T11:38:04.688Z,2.40
2019-01-18T11:40:33.182Z,2.30
2019-01-18T11:43:01.830Z,2.30
2019-01-18T11:45:30.435Z,2.10
2019-01-18T11:47:59.102Z,2.20
2019-01-18T11:50:31.074Z,2.20
2019-01-18T11:53:02.418Z,2.20
2019-01-18T11:55:32.226Z,2.30
2019-01-18T11:58:00.716Z,2.30
2019-01-18T12:00:29.679Z,2.40
2019-01-18T12:02:58.180Z,2.40
2019-01-18T12:05:26.810Z,2.30
2019-01-18T12:07:56.582Z,2.20
2019-01-18T12:10:27.258Z,2.30
2019-01-18T12:12:56.014Z,2.20
2019-01-18T12:15:25.125Z,2.10
2019-01-18T12:17:55.448Z,2.20
2019-01-18T12:20:32.804Z,2.20
2019-01-18T12:23:04.580Z,2.10
2019-01-18T12:25:33.335Z,2.10
2019-01-18T12:28:04.392Z,2.10
2019-01-18T12:30:33.946Z,2.10
2019-01-18T12:33:02.562Z,2.10
2019-01-18T12:35:31.157Z,2.30
2019-01-18T12:37:59.719Z,2.30
2019-01-18T12:40:29.848Z,2.20
2019-01-18T12:42:58.426Z,2.20
2019-01-18T12:45:31.326Z,2.20
2019-01-18T12:48:05.585Z,2.20
2019-01-18T12:50:35.210Z,2.30
2019-01-18T12:53:03.788Z,2.30
2019-01-18T12:55:34.612Z,2.30
2019-01-18T12:58:03.132Z,2.30
2019-01-18T13:00:31.862Z,2.30
2019-01-18T13:03:01.123Z,2.30
2019-01-18T13:05:36.006Z,2.40
2019-01-18T13:08:04.579Z,2.60
2019-01-18T13:10:33.078Z,2.60
2019-01-18T13:13:03.302Z,2.50
2019-01-18T13:15:35.170Z,2.50
2019-01-18T13:18:03.759Z,2.70
2019-01-18T13:20:32.650Z,2.70
2019-01-18T13:23:01.256Z,2.70
2019-01-18T13:25:29.883Z,2.80
2019-01-18T13:28:01.065Z,3.00
2019-01-18T13:30:29.630Z,2.90
2019-01-18T13:32:58.163Z,2.80
2019-01-18T13:35:27.668Z,2.80
2019-01-18T13:37:56.434Z,2.70
2019-01-18T13:40:24.991Z,2.70
2019-01-18T13:42:53.456Z,2.80
2019-01-18T13:45:24.396Z,3.20
2019-01-18T13:47:52.310Z,3.90
2019-01-18T13:50:21.077Z,4.80
2019-01-18T13:52:49.667Z,5.60
2019-01-18T13:55:29.603Z,5.90
2019-01-18T13:57:59.821Z,6.60
2019-01-18T14:00:28.761Z,6.80
2019-01-18T14:02:57.413Z,6.40
2019-01-18T14:05:25.945Z,6.40
2019-01-18T14:07:57.181Z,6.50
2019-01-18T14:10:33.398Z,6.80
2019-01-18T14:13:01.984Z,7.30
2019-01-18T14:15:30.698Z,7.20
2019-01-18T14:17:59.348Z,6.80
2019-01-18T14:20:29.360Z,6.20
2019-01-18T14:23:17.449Z,5.80
2019-01-18T14:25:46.214Z,5.10
2019-01-18T14:28:14.998Z,4.40
2019-01-18T14:30:43.578Z,3.50
2019-01-18T14:33:15.954Z,2.90
2019-01-18T14:35:49.133Z,2.50
2019-01-18T14:38:17.820Z,2.10
2019-01-18T14:40:46.369Z,1.80
2019-01-18T14:43:16.215Z,1.60
2019-01-18T14:45:44.747Z,1.50
2019-01-18T14:48:13.386Z,1.40
2019-01-18T14:50:43.381Z,1.30
2019-01-18T14:53:12.219Z,1.10
2019-01-18T14:55:59.086Z,1.00
2019-01-18T14:58:27.583Z,1.00
2019-01-18T15:01:14.191Z,1.00
2019-01-18T15:03:42.872Z,0.90
2019-01-18T15:06:11.330Z,0.80
2019-01-18T15:08:39.894Z,0.80
2019-01-18T15:11:08.338Z,0.80
2019-01-18T15:13:37.042Z,0.70
2019-01-18T15:16:05.632Z,0.70
2019-01-18T15:18:35.447Z,0.60
2019-01-18T15:21:03.858Z,0.60
2019-01-18T15:23:32.674Z,0.60
2019-01-18T15:26:01.265Z,0.50
2019-01-18T15:28:31.059Z,0.50
2019-01-18T15:30:59.519Z,0.50
2019-01-18T15:33:28.118Z,0.60
2019-01-18T15:35:56.815Z,0.70
2019-01-18T15:38:25.408Z,0.70
2019-01-18T15:40:54.385Z,0.70
2019-01-18T15:43:24.505Z,0.80
2019-01-18T15:45:53.363Z,0.90
2019-01-18T15:48:22.063Z,0.90
2019-01-18T15:50:50.826Z,0.90
2019-01-18T15:53:21.566Z,0.90
2019-01-18T15:55:50.335Z,0.90
2019-01-18T15:58:19.347Z,0.90
2019-01-18T16:00:49.354Z,0.90
2019-01-18T16:03:18.706Z,0.80
2019-01-18T16:05:47.517Z,0.80
2019-01-18T16:08:16.229Z,0.90
2019-01-18T16:10:44.852Z,0.90
2019-01-18T16:13:13.372Z,0.90
2019-01-18T16:15:47.945Z,1.00
2019-01-18T16:18:19.576Z,1.00
2019-01-18T16:20:48.117Z,0.90
2019-01-18T16:23:16.906Z,0.90
2019-01-18T16:25:45.490Z,0.90
2019-01-18T16:28:14.091Z,1.00
2019-01-18T16:30:42.831Z,1.00
2019-01-18T16:33:12.400Z,1.00
2019-01-18T16:35:41.075Z,1.00
2019-01-18T16:38:11.993Z,1.00
2019-01-18T16:40:43.172Z,1.00
2019-01-18T16:43:14.276Z,0.90
2019-01-18T16:45:42.891Z,0.80
2019-01-18T16:48:11.598Z,0.70
2019-01-18T16:50:40.388Z,0.60
2019-01-18T16:53:09.131Z,0.50
2019-01-18T16:55:37.953Z,0.50
2019-01-18T16:58:08.899Z,0.50
2019-01-18T17:00:40.342Z,0.50
2019-01-18T17:03:10.673Z,0.40
2019-01-18T17:05:39.265Z,0.50
2019-01-18T17:08:09.163Z,0.40
2019-01-18T17:10:43.782Z,0.40
2019-01-18T17:13:12.845Z,0.40
2019-01-18T17:15:41.472Z,0.30
2019-01-18T17:18:10.166Z,0.30
2019-01-18T17:20:45.289Z,0.30
2019-01-18T17:23:14.231Z,0.30
2019-01-18T17:25:43.907Z,0.20
2019-01-18T17:28:12.691Z,0.10
2019-01-18T17:30:49.613Z,0.10
2019-01-18T17:33:18.116Z,0.10
2019-01-18T17:35:52.870Z,0.00
2019-01-18T17:38:40.317Z,0.00
2019-01-18T17:41:30.351Z,-0.10
2019-01-18T17:44:14.098Z,-0.10
2019-01-18T17:47:04.261Z,0.00
2019-01-18T17:49:42.060Z,0.00
2019-01-18T17:52:45.457Z,0.00
2019-01-18T17:55:28.809Z,0.00
2019-01-18T17:58:04.602Z,-0.10
2019-01-18T18:00:39.530Z,-0.10
2019-01-18T18:03:17.555Z,-0.20
2019-01-18T18:06:18.285Z,-0.20
2019-01-18T18:08:50.363Z,-0.10
2019-01-18T18:11:24.855Z,-0.20
2019-01-18T18:14:10.290Z,-0.20
2019-01-18T18:16:42.043Z,-0.10
2019-01-18T18:19:22.433Z,-0.10
2019-01-18T18:21:55.917Z,-0.10
2019-01-18T18:24:39.434Z,-0.10
2019-01-18T18:27:30.457Z,-0.10
2019-01-18T18:30:20.648Z,-0.10
2019-01-18T18:32:58.424Z,-0.10
2019-01-18T18:35:36.132Z,-0.10
2019-01-18T18:38:41.373Z,-0.20
2019-01-18T18:41:27.011Z,-0.30
2019-01-18T18:44:33.229Z,-0.30
2019-01-18T18:47:20.970Z,-0.30
2019-01-18T18:50:03.991Z,-0.30
2019-01-18T18:52:52.127Z,-0.30
2019-01-18T18:55:35.982Z,-0.40
2019-01-18T18:58:07.734Z,-0.40
2019-01-18T19:00:39.617Z,-0.40
2019-01-18T19:03:23.529Z,-0.40
2019-01-18T19:06:19.482Z,-0.40
2019-01-18T19:09:03.140Z,-0.40
2019-01-18T19:11:58.315Z,-0.40
2019-01-18T19:14:35.192Z,-0.30
2019-01-18T19:17:16.166Z,-0.30
2019-01-18T19:19:52.113Z,-0.20
2019-01-18T19:22:41.912Z,-0.20
2019-01-18T19:25:28.424Z,-0.20
2019-01-18T19:28:12.374Z,-0.20
2019-01-18T19:31:09.714Z,-0.10
2019-01-18T19:33:45.799Z,-0.10
2019-01-18T19:36:40.456Z,-0.10
2019-01-18T19:39:35.063Z,0.10
2019-01-18T19:42:08.954Z,0.00
2019-01-18T19:44:43.551Z,0.10
2019-01-18T19:47:18.422Z,0.10
2019-01-18T19:49:59.107Z,0.10
2019-01-18T19:52:34.140Z,0.10
2019-01-18T19:55:05.932Z,0.10
2019-01-18T19:57:51.356Z,0.10
2019-01-18T20:00:33.426Z,0.20
2019-01-18T20:03:05.138Z,0.10
2019-01-18T20:05:54.993Z,0.10
2019-01-18T20:08:40.470Z,0.10
2019-01-18T20:11:15.186Z,0.10
2019-01-18T20:14:11.005Z,0.00
2019-01-18T20:17:16.230Z,0.00
2019-01-18T20:20:14.125Z,-0.10
2019-01-18T20:22:52.271Z,-0.10
2019-01-18T20:25:33.088Z,0.00
2019-01-18T20:28:13.830Z,0.00
2019-01-18T20:31:00.896Z,0.10
2019-01-18T20:33:51.876Z,0.00
2019-01-18T20:36:40.002Z,0.00
2019-01-18T20:39:20.330Z,0.10
2019-01-18T20:42:14.777Z,0.00
2019-01-18T20:45:21.359Z,0.10
2019-01-18T20:48:08.534Z,0.10
2019-01-18T20:50:56.831Z,0.10
2019-01-18T20:53:37.494Z,0.10
2019-01-18T20:56:09.358Z,0.10
2019-01-18T20:58:43.716Z,0.00
2019-01-18T21:01:15.549Z,-0.10
2019-01-18T21:03:56.556Z,-0.10
2019-01-18T21:06:40.382Z,-0.10
2019-01-18T21:09:37.633Z,-0.10
2019-01-18T21:12:18.399Z,-0.20
2019-01-18T21:14:55.975Z,-0.20
2019-01-18T21:17:52.183Z,-0.20
2019-01-18T21:20:43.674Z,-0.20
2019-01-18T21:23:21.658Z,-0.20
2019-01-18T21:25:53.863Z,-0.20
2019-01-18T21:28:28.535Z,-0.20
2019-01-18T21:31:06.506Z,-0.20
2019-01-18T21:33:41.112Z,-0.30
2019-01-18T21:36:12.929Z,-0.30
2019-01-18T21:38:59.294Z,-0.30
2019-01-18T21:41:43.383Z,-0.20
2019-01-18T21:44:44.150Z,-0.20
2019-01-18T21:47:40.187Z,-0.20
2019-01-18T21:50:15.355Z,-0.20
2019-01-18T21:53:04.953Z,-0.20
2019-01-18T21:55:48.688Z,-0.20
2019-01-18T21:58:32.234Z,-0.30
2019-01-18T22:01:22.450Z,-0.30
2019-01-18T22:03:56.983Z,-0.40
2019-01-18T22:06:31.193Z,-0.50
2019-01-18T22:09:08.485Z,-0.60
2019-01-18T22:11:56.828Z,-0.60
2019-01-18T22:14:37.631Z,-0.60
2019-01-18T22:17:18.027Z,-0.70
2019-01-18T22:20:22.833Z,-0.80
2019-01-18T22:23:09.668Z,-0.80
2019-01-18T22:26:12.295Z,-0.80
2019-01-18T22:28:46.926Z,-0.90
2019-01-18T22:31:37.554Z,-0.90
2019-01-18T22:34:09.228Z,-0.90
2019-01-18T22:36:43.851Z,-1.00
2019-01-18T22:39:18.793Z,-1.00
2019-01-18T22:42:02.041Z,-1.00
2019-01-18T22:44:36.826Z,-1.00
2019-01-18T22:47:17.357Z,-1.10
2019-01-18T22:49:54.917Z,-1.10
2019-01-18T22:52:29.420Z,-1.10
2019-01-18T22:55:07.052Z,-1.10
2019-01-18T22:57:38.918Z,-1.10
2019-01-18T23:00:40.577Z,-1.10
2019-01-18T23:03:21.051Z,-1.20
2019-01-18T23:05:55.966Z,-1.20
2019-01-18T23:08:34.157Z,-1.10
2019-01-18T23:11:21.150Z,-1.00
2019-01-18T23:14:04.891Z,-1.00
2019-01-18T23:16:48.882Z,-1.00
2019-01-18T23:19:24.200Z,-1.00
2019-01-18T23:22:11.089Z,-1.00
2019-01-18T23:24:52.225Z,-0.90
2019-01-18T23:27:30.982Z,-0.90
2019-01-18T23:30:09.195Z,-1.00
2019-01-18T23:32:49.675Z,-1.10
2019-01-18T23:35:27.333Z,-1.10
2019-01-18T23:38:17.267Z,-1.20
2019-01-18T23:40:57.881Z,-1.20
2019-01-18T23:43:49.168Z,-1.20
2019-01-18T23:46:37.658Z,-1.20
2019-01-18T23:49:10.124Z,-1.20
2019-01-18T23:52:00.027Z,-1.30
2019-01-18T23:54:49.709Z,-1.40
2019-01-18T23:57:50.481Z,-1.40
